Time;durP1;ratioP1;P1;durP2;ratioP2;P2;SDS_P1;SDS_P2;PMS_P1;PMS_P2;Temp;Humidity;BMP_temperature;BMP_pressure;BME280_temperature;BME280_humidity;BME280_pressure;Samples;Min_cycle;Max_cycle;Signal;HPM_P1;HPM_P2
2023/08/22 00:01:26;;;;;;;2.95;1.33;;;21.70;99.90;;;;;;5083190;28;20036;-43
2023/08/22 00:03:56;;;;;;;1.63;1.27;;;21.70;99.90;;;;;;5072470;28;20028;-43
2023/08/22 00:06:23;;;;;;;2.35;1.20;;;21.70;99.90;;;;;;5083495;28;20047;-43
2023/08/22 00:08:49;;;;;;;3.45;1.23;;;21.70;99.90;;;;;;5072016;28;20039;-43
2023/08/22 00:11:15;;;;;;;3.67;1.30;;;21.70;99.90;;;;;;5083144;28;20028;-44
2023/08/22 00:13:40;;;;;;;3.78;1.35;;;21.70;99.90;;;;;;5072080;28;20032;-42
2023/08/22 00:16:06;;;;;;;2.55;1.30;;;21.70;99.90;;;;;;5073680;28;20502;-43
2023/08/22 00:18:32;;;;;;;4.05;1.35;;;21.70;99.90;;;;;;5075629;28;20082;-43
2023/08/22 00:20:57;;;;;;;2.78;1.20;;;21.80;99.90;;;;;;5064823;28;20039;-42
2023/08/22 00:23:23;;;;;;;1.58;1.20;;;21.70;99.90;;;;;;5071456;28;20122;-42
2023/08/22 00:25:48;;;;;;;1.98;1.20;;;21.70;99.90;;;;;;5067777;28;20128;-43
2023/08/22 00:28:14;;;;;;;2.78;1.48;;;21.70;99.90;;;;;;5069485;28;20024;-42
2023/08/22 00:30:40;;;;;;;3.95;1.23;;;21.70;99.90;;;;;;5070265;28;20078;-43
2023/08/22 00:33:06;;;;;;;4.28;1.15;;;21.70;99.90;;;;;;5066964;28;20043;-42
2023/08/22 00:35:32;;;;;;;1.92;1.00;;;21.70;99.90;;;;;;5072978;28;20025;-43
2023/08/22 00:37:57;;;;;;;2.30;1.15;;;21.70;99.90;;;;;;5064498;28;20024;-43
2023/08/22 00:40:23;;;;;;;2.03;1.20;;;21.70;99.90;;;;;;5075046;28;20085;-43
2023/08/22 00:42:50;;;;;;;2.65;1.30;;;21.70;99.90;;;;;;5065198;28;20530;-43
2023/08/22 00:45:18;;;;;;;2.80;1.00;;;21.60;99.90;;;;;;5074346;28;20123;-44
2023/08/22 00:47:44;;;;;;;2.20;1.13;;;21.60;99.90;;;;;;5062494;28;20488;-43
2023/08/22 00:50:10;;;;;;;2.22;1.23;;;21.60;99.90;;;;;;5069280;28;20023;-43
2023/08/22 00:52:37;;;;;;;3.08;1.13;;;21.50;99.90;;;;;;5083085;28;20020;-43
2023/08/22 00:55:03;;;;;;;1.83;1.20;;;21.50;99.90;;;;;;5068874;28;20682;-43
2023/08/22 00:57:28;;;;;;;1.58;1.00;;;21.50;99.90;;;;;;5082929;28;20053;-43
2023/08/22 00:59:57;;;;;;;1.98;1.25;;;21.50;99.90;;;;;;5071492;28;20452;-42
2023/08/22 01:02:23;;;;;;;2.83;1.30;;;21.50;99.90;;;;;;5088084;28;20040;-42
2023/08/22 01:04:49;;;;;;;2.90;1.15;;;21.50;99.90;;;;;;5081230;28;20459;-43
2023/08/22 01:07:27;;;;;;;3.50;1.00;;;21.50;99.90;;;;;;5085303;28;20032;-42
2023/08/22 01:09:59;;;;;;;1.88;1.45;;;21.40;99.90;;;;;;5082035;28;20082;-43
2023/08/22 01:12:40;;;;;;;2.72;1.10;;;21.40;99.90;;;;;;5086323;28;20142;-43
2023/08/22 01:15:21;;;;;;;1.00;0.90;;;21.40;99.90;;;;;;5080273;28;20416;-42
2023/08/22 01:17:49;;;;;;;2.35;1.10;;;21.30;99.90;;;;;;5071305;28;20086;-42
2023/08/22 01:20:18;;;;;;;3.78;0.90;;;21.30;99.90;;;;;;5077297;28;20020;-43
2023/08/22 01:22:43;;;;;;;3.65;1.38;;;21.20;99.90;;;;;;5074223;28;20044;-43
2023/08/22 01:25:09;;;;;;;2.88;1.40;;;21.20;99.90;;;;;;5075405;28;20129;-43
2023/08/22 01:27:53;;;;;;;1.42;1.17;;;21.20;99.90;;;;;;5075376;28;20036;-42
2023/08/22 01:30:46;;;;;;;2.05;1.27;;;21.20;99.90;;;;;;5075204;28;20020;-43
2023/08/22 01:33:21;;;;;;;1.05;1.00;;;21.20;99.90;;;;;;5063116;28;20078;-43
2023/08/22 01:35:50;;;;;;;1.30;1.20;;;21.10;99.90;;;;;;5078273;28;20036;-42
2023/08/22 01:38:25;;;;;;;3.40;1.27;;;21.20;99.90;;;;;;5072479;28;20024;-42
2023/08/22 01:40:52;;;;;;;1.75;1.10;;;21.20;99.90;;;;;;5077163;28;20024;-42
2023/08/22 01:43:21;;;;;;;4.72;1.40;;;21.20;99.90;;;;;;5073877;28;20013;-43
2023/08/22 01:45:49;;;;;;;3.05;1.60;;;21.10;99.90;;;;;;5076296;28;20054;-43
2023/08/22 01:48:15;;;;;;;2.80;1.30;;;21.10;99.90;;;;;;5074954;28;20046;-43
2023/08/22 01:50:41;;;;;;;2.03;1.25;;;21.10;99.90;;;;;;5074034;28;20025;-43
2023/08/22 01:53:06;;;;;;;3.85;1.20;;;21.10;99.90;;;;;;5078483;28;20127;-43
2023/08/22 01:55:32;;;;;;;2.30;1.20;;;21.10;99.90;;;;;;5069467;28;20051;-43
2023/08/22 01:57:58;;;;;;;3.53;1.40;;;21.10;99.90;;;;;;5079611;28;20043;-42
2023/08/22 02:00:23;;;;;;;2.88;1.08;;;21.10;99.90;;;;;;5069298;28;20021;-44
2023/08/22 02:02:53;;;;;;;1.77;1.20;;;21.00;99.90;;;;;;5079147;28;20571;-44
2023/08/22 02:05:19;;;;;;;2.50;1.40;;;21.00;99.90;;;;;;5068974;28;20268;-44
2023/08/22 02:07:47;;;;;;;2.10;1.30;;;21.00;99.90;;;;;;5081952;28;20430;-43
2023/08/22 02:10:13;;;;;;;1.52;1.20;;;21.00;99.90;;;;;;5068422;28;20743;-44
2023/08/22 02:12:38;;;;;;;1.98;1.35;;;20.90;99.90;;;;;;5080223;28;20533;-44
2023/08/22 02:15:04;;;;;;;1.73;1.33;;;20.90;99.90;;;;;;5066335;28;20468;-43
2023/08/22 02:17:30;;;;;;;2.22;1.30;;;21.00;99.90;;;;;;5073749;28;20090;-42
2023/08/22 02:19:56;;;;;;;2.10;1.30;;;21.00;99.90;;;;;;5085138;28;20126;-43
2023/08/22 02:22:21;;;;;;;2.75;1.40;;;20.90;99.90;;;;;;5077640;28;20456;-43
2023/08/22 02:24:47;;;;;;;2.08;1.70;;;21.00;99.90;;;;;;5081372;28;20055;-44
2023/08/22 02:27:15;;;;;;;2.05;1.50;;;20.90;99.90;;;;;;5079607;28;20059;-43
2023/08/22 02:29:41;;;;;;;1.65;1.40;;;20.90;99.90;;;;;;5079750;28;20035;-43
2023/08/22 02:32:06;;;;;;;2.10;1.33;;;20.90;99.90;;;;;;5081927;28;20028;-43
2023/08/22 02:34:32;;;;;;;2.55;1.50;;;20.90;99.90;;;;;;5077703;28;20021;-43
2023/08/22 02:36:57;;;;;;;2.00;1.20;;;20.90;99.90;;;;;;5083994;28;20756;-43
2023/08/22 02:39:23;;;;;;;2.83;1.50;;;20.90;99.90;;;;;;5074345;28;20190;-43
2023/08/22 02:41:48;;;;;;;2.08;1.52;;;20.90;99.90;;;;;;5084909;28;20070;-44
2023/08/22 02:44:14;;;;;;;2.80;1.40;;;20.80;99.90;;;;;;5073076;28;20031;-44
2023/08/22 02:46:39;;;;;;;2.45;1.58;;;20.80;99.90;;;;;;5086582;28;20044;-44
2023/08/22 02:49:08;;;;;;;2.88;1.35;;;20.80;99.90;;;;;;5072935;28;20569;-42
2023/08/22 02:51:33;;;;;;;2.20;1.30;;;20.80;99.90;;;;;;5085321;28;20028;-44
2023/08/22 02:53:59;;;;;;;1.30;1.20;;;20.80;99.90;;;;;;5072764;28;20020;-42
2023/08/22 02:56:24;;;;;;;2.60;1.70;;;20.80;99.90;;;;;;5086253;28;20520;-43
2023/08/22 02:58:50;;;;;;;3.33;1.48;;;20.70;99.90;;;;;;5074194;28;20522;-42
2023/08/22 03:01:16;;;;;;;1.98;1.65;;;20.70;99.90;;;;;;5083573;28;20073;-43
2023/08/22 03:03:43;;;;;;;3.45;1.67;;;20.70;99.90;;;;;;5077573;28;20024;-41
2023/08/22 03:06:09;;;;;;;2.72;1.67;;;20.70;99.90;;;;;;5079598;28;20036;-42
2023/08/22 03:08:37;;;;;;;3.97;1.58;;;20.70;99.90;;;;;;5078073;28;20046;-42
2023/08/22 03:11:06;;;;;;;3.40;1.73;;;20.60;99.90;;;;;;5078076;28;20490;-44
2023/08/22 03:13:34;;;;;;;3.10;1.80;;;20.60;99.90;;;;;;5079467;28;20016;-43
2023/08/22 03:16:00;;;;;;;2.28;1.73;;;20.60;99.90;;;;;;5070021;28;20427;-43
2023/08/22 03:18:26;;;;;;;3.13;1.88;;;20.60;99.90;;;;;;5066474;28;20025;-45
2023/08/22 03:20:56;;;;;;;2.35;1.85;;;20.50;99.90;;;;;;5074832;28;20027;-43
2023/08/22 03:23:22;;;;;;;2.65;1.75;;;20.50;99.90;;;;;;5065557;28;20502;-43
2023/08/22 03:25:55;;;;;;;4.03;2.13;;;20.50;99.90;;;;;;5076471;28;20020;-43
2023/08/22 03:28:21;;;;;;;3.65;2.10;;;20.50;99.90;;;;;;5065194;28;20043;-42
2023/08/22 03:30:47;;;;;;;2.28;1.80;;;20.50;99.90;;;;;;5076788;28;20017;-42
2023/08/22 03:33:12;;;;;;;3.50;1.98;;;20.40;99.90;;;;;;5063309;28;20053;-42
2023/08/22 03:35:38;;;;;;;3.33;1.83;;;20.40;99.90;;;;;;5077527;28;20055;-44
2023/08/22 03:38:03;;;;;;;5.07;2.10;;;20.40;99.90;;;;;;5064878;28;20035;-43
2023/08/22 03:40:29;;;;;;;2.90;1.98;;;20.40;99.90;;;;;;5076600;28;20027;-42
2023/08/22 03:43:00;;;;;;;2.05;1.67;;;20.30;99.90;;;;;;5065070;28;20033;-43
2023/08/22 03:45:26;;;;;;;2.65;1.83;;;20.30;99.90;;;;;;5076011;28;20044;-42
2023/08/22 03:47:51;;;;;;;2.65;1.80;;;20.30;99.90;;;;;;5064644;28;20033;-43
2023/08/22 03:50:17;;;;;;;3.58;1.85;;;20.30;99.90;;;;;;5072887;28;20031;-43
2023/08/22 03:52:42;;;;;;;3.42;1.77;;;20.20;99.90;;;;;;5068840;28;20048;-43
2023/08/22 03:55:08;;;;;;;4.13;2.00;;;20.20;99.90;;;;;;5069193;28;20502;-43
2023/08/22 03:57:34;;;;;;;3.25;1.90;;;20.20;99.90;;;;;;5070831;28;20491;-43
2023/08/22 03:59:59;;;;;;;2.08;1.80;;;20.20;99.90;;;;;;5067516;28;20346;-43
2023/08/22 04:02:25;;;;;;;2.95;2.00;;;20.10;99.90;;;;;;5073134;28;20028;-43
2023/08/22 04:04:50;;;;;;;3.50;1.98;;;20.10;99.90;;;;;;5066289;28;20530;-43
2023/08/22 04:07:16;;;;;;;2.05;1.85;;;20.10;99.90;;;;;;5075887;28;20040;-44
2023/08/22 04:09:42;;;;;;;5.15;2.00;;;20.10;99.90;;;;;;5064975;28;20111;-43
2023/08/22 04:12:08;;;;;;;3.33;2.10;;;20.00;99.90;;;;;;5075345;28;20032;-43
2023/08/22 04:14:33;;;;;;;4.38;2.25;;;20.00;99.90;;;;;;5063466;28;20120;-43
2023/08/22 04:16:59;;;;;;;3.38;2.10;;;20.00;99.90;;;;;;5064121;28;20447;-44
2023/08/22 04:19:25;;;;;;;2.33;2.00;;;20.00;99.90;;;;;;5062915;28;20920;-43
2023/08/22 04:21:50;;;;;;;3.85;2.28;;;20.00;99.90;;;;;;5067557;28;20033;-43
2023/08/22 04:24:16;;;;;;;4.22;2.10;;;20.00;99.90;;;;;;5082732;28;20212;-43
2023/08/22 04:26:41;;;;;;;3.00;2.20;;;19.90;99.90;;;;;;5073769;28;20434;-43
2023/08/22 04:29:07;;;;;;;3.15;2.17;;;19.90;99.90;;;;;;5081182;28;20107;-43
2023/08/22 04:31:32;;;;;;;2.20;1.95;;;19.90;99.90;;;;;;5075113;28;20032;-43
2023/08/22 04:33:58;;;;;;;2.45;1.70;;;19.90;99.90;;;;;;5078869;28;20028;-43
2023/08/22 04:36:24;;;;;;;3.25;2.00;;;19.90;99.90;;;;;;5076607;28;20024;-44
2023/08/22 04:38:49;;;;;;;2.22;1.90;;;19.90;99.90;;;;;;5076805;28;20063;-43
2023/08/22 04:41:16;;;;;;;4.18;2.30;;;19.80;99.90;;;;;;5081114;28;20487;-43
2023/08/22 04:43:41;;;;;;;3.95;2.50;;;19.80;99.90;;;;;;5073779;28;20028;-44
2023/08/22 04:46:07;;;;;;;2.97;2.20;;;19.80;99.90;;;;;;5081672;28;20019;-42
2023/08/22 04:48:32;;;;;;;3.80;2.25;;;19.80;99.90;;;;;;5072523;28;20107;-43
2023/08/22 04:50:58;;;;;;;2.83;2.08;;;19.80;99.90;;;;;;5081753;28;20035;-43
2023/08/22 04:53:24;;;;;;;4.28;2.40;;;19.80;99.90;;;;;;5071213;28;20024;-43
2023/08/22 04:55:53;;;;;;;2.70;2.40;;;19.70;99.90;;;;;;5083500;28;20056;-43
2023/08/22 04:58:18;;;;;;;3.58;2.47;;;19.80;99.90;;;;;;5069036;28;20061;-42
2023/08/22 05:00:44;;;;;;;2.60;2.00;;;19.80;99.90;;;;;;5083841;28;20020;-43
2023/08/22 05:03:15;;;;;;;2.20;2.00;;;19.80;99.90;;;;;;5070742;28;20032;-43
2023/08/22 05:05:40;;;;;;;2.28;2.08;;;19.80;99.90;;;;;;5063083;28;20111;-43
2023/08/22 05:08:06;;;;;;;4.55;2.40;;;19.80;99.90;;;;;;5073598;28;20042;-43
2023/08/22 05:10:44;;;;;;;3.70;2.60;;;19.80;99.90;;;;;;5065288;28;20457;-43
2023/08/22 05:13:09;;;;;;;4.32;2.53;;;19.80;99.90;;;;;;5072265;28;20023;-43
2023/08/22 05:15:35;;;;;;;5.38;3.58;;;19.80;99.90;;;;;;5068057;28;20025;-43
2023/08/22 05:18:00;;;;;;;5.47;3.50;;;19.80;99.90;;;;;;5076936;28;20787;-43
2023/08/22 05:20:26;;;;;;;3.42;3.05;;;19.80;99.90;;;;;;5077248;28;20060;-43
2023/08/22 05:22:52;;;;;;;4.07;3.67;;;19.80;99.90;;;;;;5077139;28;20875;-43
2023/08/22 05:25:17;;;;;;;4.38;3.97;;;19.90;99.90;;;;;;5066492;28;20051;-43
2023/08/22 05:27:43;;;;;;;5.35;4.10;;;19.80;99.90;;;;;;5062882;28;20036;-43
2023/08/22 05:30:12;;;;;;;4.88;4.43;;;19.90;99.90;;;;;;5073358;28;20099;-43
2023/08/22 05:32:39;;;;;;;4.82;4.00;;;19.90;99.90;;;;;;5063008;28;20466;-43
2023/08/22 05:35:11;;;;;;;5.13;4.07;;;19.90;99.90;;;;;;5073543;28;20029;-44
2023/08/22 05:37:36;;;;;;;6.15;4.40;;;19.90;99.90;;;;;;5063829;28;20043;-43
2023/08/22 05:40:03;;;;;;;4.70;3.95;;;19.90;99.90;;;;;;5073225;28;20028;-44
2023/08/22 05:42:28;;;;;;;4.65;4.10;;;20.00;99.90;;;;;;5063180;28;20032;-43
2023/08/22 05:44:57;;;;;;;4.60;4.20;;;20.00;99.90;;;;;;5075109;28;20017;-43
2023/08/22 05:47:22;;;;;;;4.75;4.07;;;20.10;99.90;;;;;;5063571;28;20115;-44
2023/08/22 05:49:48;;;;;;;4.38;3.78;;;20.10;99.90;;;;;;5079000;28;20131;-43
2023/08/22 05:52:25;;;;;;;5.55;3.55;;;20.20;99.90;;;;;;5066739;28;20033;-44
2023/08/22 05:54:50;;;;;;;5.43;3.92;;;20.30;99.90;;;;;;5078759;28;20166;-43
2023/08/22 05:57:16;;;;;;;4.90;3.50;;;20.40;99.90;;;;;;5067154;28;20529;-43
2023/08/22 05:59:41;;;;;;;5.20;4.15;;;20.50;99.90;;;;;;5076219;28;20023;-43
2023/08/22 06:02:07;;;;;;;4.15;3.78;;;20.60;99.90;;;;;;5068895;28;20910;-43
2023/08/22 06:04:33;;;;;;;4.97;4.15;;;20.70;99.90;;;;;;5072782;28;20012;-42
2023/08/22 06:06:58;;;;;;;5.15;3.95;;;20.80;99.90;;;;;;5072079;28;20393;-43
2023/08/22 06:09:24;;;;;;;4.68;4.07;;;20.90;99.90;;;;;;5069733;28;20012;-42
2023/08/22 06:11:49;;;;;;;4.95;3.88;;;20.90;99.90;;;;;;5075295;28;20044;-43
2023/08/22 06:14:15;;;;;;;4.57;4.00;;;20.90;99.90;;;;;;5067531;28;20019;-43
2023/08/22 06:16:41;;;;;;;5.88;4.38;;;20.90;99.90;;;;;;5076230;28;20035;-43
2023/08/22 06:19:07;;;;;;;6.97;4.90;;;21.00;99.90;;;;;;5067404;28;20846;-42
2023/08/22 06:21:33;;;;;;;5.55;4.47;;;21.00;99.90;;;;;;5078028;28;20032;-42
2023/08/22 06:23:58;;;;;;;5.50;4.47;;;21.00;99.90;;;;;;5065699;28;20630;-42
2023/08/22 06:26:24;;;;;;;5.10;4.50;;;21.10;99.90;;;;;;5078032;28;20036;-42
2023/08/22 06:28:50;;;;;;;5.80;4.40;;;21.20;99.90;;;;;;5065802;28;20032;-43
2023/08/22 06:31:15;;;;;;;5.32;4.82;;;21.20;99.90;;;;;;5076912;28;20047;-43
2023/08/22 06:33:41;;;;;;;4.85;4.45;;;21.30;99.90;;;;;;5064836;28;20028;-43
2023/08/22 06:36:07;;;;;;;5.90;4.50;;;21.40;99.90;;;;;;5075019;28;20064;-43
2023/08/22 06:38:33;;;;;;;5.03;4.53;;;21.50;99.90;;;;;;5066411;28;20032;-44
2023/08/22 06:41:04;;;;;;;5.40;3.95;;;21.50;99.90;;;;;;5074103;28;20020;-43
2023/08/22 06:43:30;;;;;;;5.40;4.38;;;21.60;99.90;;;;;;5068225;28;20043;-44
2023/08/22 06:45:58;;;;;;;4.28;3.83;;;21.60;99.90;;;;;;5072207;28;20019;-44
2023/08/22 06:48:24;;;;;;;4.32;3.92;;;21.60;99.90;;;;;;5070445;28;20025;-44
2023/08/22 06:50:49;;;;;;;4.45;3.80;;;21.70;99.90;;;;;;5070167;28;20344;-44
2023/08/22 06:53:15;;;;;;;4.95;3.75;;;21.60;99.90;;;;;;5072221;28;20153;-44
2023/08/22 06:55:41;;;;;;;4.57;3.35;;;21.60;99.90;;;;;;5067362;28;20049;-42
2023/08/22 06:58:08;;;;;;;3.85;3.30;;;21.60;99.90;;;;;;5081600;28;20020;-43
2023/08/22 07:00:33;;;;;;;4.60;3.30;;;21.50;99.90;;;;;;5083610;28;20036;-43
2023/08/22 07:02:59;;;;;;;4.20;3.42;;;21.50;99.90;;;;;;5074783;28;20028;-43
2023/08/22 07:05:24;;;;;;;4.65;3.75;;;21.50;99.90;;;;;;5084439;28;20139;-43
2023/08/22 07:07:50;;;;;;;3.55;3.25;;;21.50;99.90;;;;;;5073974;28;20034;-43
2023/08/22 07:10:15;;;;;;;4.72;3.65;;;21.40;99.90;;;;;;5085960;28;20012;-44
2023/08/22 07:12:41;;;;;;;3.33;3.03;;;21.40;99.90;;;;;;5071372;28;20027;-43
2023/08/22 07:15:07;;;;;;;3.90;3.30;;;21.40;99.90;;;;;;5084960;28;20135;-43
2023/08/22 07:17:36;;;;;;;3.63;3.05;;;21.40;99.90;;;;;;5081336;28;20020;-43
2023/08/22 07:20:03;;;;;;;3.88;2.95;;;21.40;99.90;;;;;;5064729;28;20047;-44
2023/08/22 07:22:29;;;;;;;3.10;2.42;;;21.50;99.90;;;;;;5074602;28;20016;-44
2023/08/22 07:24:55;;;;;;;2.80;2.55;;;21.50;99.90;;;;;;5068237;28;20113;-44
2023/08/22 07:27:21;;;;;;;3.33;3.03;;;21.60;99.90;;;;;;5070867;28;20469;-44
2023/08/22 07:29:50;;;;;;;4.28;3.13;;;21.70;99.90;;;;;;5070814;28;20099;-43
2023/08/22 07:32:18;;;;;;;3.78;3.33;;;21.80;99.90;;;;;;5069551;28;20027;-44
2023/08/22 07:34:45;;;;;;;3.75;2.90;;;21.90;99.90;;;;;;5072177;28;20373;-43
2023/08/22 07:37:12;;;;;;;4.15;3.20;;;21.90;99.90;;;;;;5067434;28;20036;-43
2023/08/22 07:39:37;;;;;;;3.22;2.50;;;21.90;99.90;;;;;;5073013;28;20078;-45
2023/08/22 07:42:04;;;;;;;3.53;2.55;;;22.00;99.90;;;;;;5064814;28;20021;-46
2023/08/22 07:44:30;;;;;;;2.90;2.28;;;22.10;99.90;;;;;;5074826;28;20084;-44
2023/08/22 07:46:56;;;;;;;2.92;2.13;;;22.10;99.90;;;;;;5065221;28;20025;-43
2023/08/22 07:49:25;;;;;;;2.85;2.20;;;22.20;99.90;;;;;;5075166;28;20020;-43
2023/08/22 07:51:51;;;;;;;3.42;2.53;;;22.30;99.90;;;;;;5065112;28;20040;-44
2023/08/22 07:54:17;;;;;;;1.90;1.70;;;22.40;99.90;;;;;;5075465;28;20767;-43
2023/08/22 07:56:44;;;;;;;2.42;2.22;;;22.50;99.90;;;;;;5064721;28;20073;-43
2023/08/22 07:59:12;;;;;;;2.38;1.38;;;22.60;99.90;;;;;;5076921;28;20020;-44
2023/08/22 08:01:37;;;;;;;3.83;1.73;;;22.70;99.90;;;;;;5063194;28;20147;-44
2023/08/22 08:04:03;;;;;;;3.50;1.80;;;22.80;99.90;;;;;;5075359;28;20142;-43
2023/08/22 08:06:33;;;;;;;6.10;1.65;;;22.90;99.90;;;;;;5064861;28;20035;-43
2023/08/22 08:08:59;;;;;;;2.92;1.73;;;23.00;99.90;;;;;;5072698;28;20031;-43
2023/08/22 08:11:24;;;;;;;2.33;1.58;;;23.10;99.90;;;;;;5066684;28;20024;-43
2023/08/22 08:13:50;;;;;;;1.55;1.45;;;23.10;99.90;;;;;;5069996;28;20111;-42
2023/08/22 08:16:16;;;;;;;2.40;1.20;;;23.20;99.90;;;;;;5073740;28;20444;-43
2023/08/22 08:18:42;;;;;;;2.08;1.20;;;23.30;99.90;;;;;;5079936;28;20780;-43
2023/08/22 08:21:07;;;;;;;1.88;1.42;;;23.40;99.90;;;;;;5074634;28;20422;-43
2023/08/22 08:23:33;;;;;;;2.00;1.33;;;23.40;99.90;;;;;;5081786;28;20035;-43
2023/08/22 08:25:59;;;;;;;3.25;1.27;;;23.40;99.90;;;;;;5072690;28;20039;-42
2023/08/22 08:28:25;;;;;;;2.88;1.00;;;23.40;99.90;;;;;;5081839;28;20315;-42
2023/08/22 08:30:50;;;;;;;2.53;1.10;;;23.40;99.90;;;;;;5072978;28;20486;-42
2023/08/22 08:33:16;;;;;;;1.17;0.80;;;23.40;99.90;;;;;;5083298;28;20070;-44
2023/08/22 08:35:41;;;;;;;1.85;0.63;;;23.40;99.90;;;;;;5070343;28;20139;-43
2023/08/22 08:38:07;;;;;;;1.10;0.65;;;23.40;99.90;;;;;;5084128;28;20051;-43
2023/08/22 08:40:36;;;;;;;1.02;0.85;;;23.50;99.90;;;;;;5070738;28;20024;-43
2023/08/22 08:43:11;;;;;;;1.60;0.70;;;23.50;99.90;;;;;;5082757;28;20051;-43
2023/08/22 08:45:41;;;;;;;1.38;1.00;;;23.50;99.90;;;;;;5070969;28;20742;-43
2023/08/22 08:48:07;;;;;;;1.73;0.68;;;23.50;99.90;;;;;;5081801;28;20424;-43
2023/08/22 08:50:39;;;;;;;1.30;0.90;;;23.50;99.90;;;;;;5070573;28;20021;-43
2023/08/22 08:53:05;;;;;;;1.63;0.95;;;23.60;99.90;;;;;;5081837;28;20032;-43
2023/08/22 08:55:32;;;;;;;1.75;0.70;;;23.60;99.90;;;;;;5073346;28;20051;-42
2023/08/22 08:58:00;;;;;;;3.00;0.90;;;23.60;99.90;;;;;;5079100;28;20099;-42
2023/08/22 09:00:27;;;;;;;1.92;0.95;;;23.60;99.90;;;;;;5076934;28;20040;-42
2023/08/22 09:02:53;;;;;;;1.92;0.93;;;23.60;99.90;;;;;;5077583;28;20479;-43
2023/08/22 09:05:21;;;;;;;2.92;1.00;;;23.70;99.90;;;;;;5077798;28;20016;-43
2023/08/22 09:07:47;;;;;;;3.05;1.30;;;23.80;99.90;;;;;;5076419;28;20043;-43
2023/08/22 09:10:12;;;;;;;5.15;1.48;;;23.90;99.90;;;;;;5080664;28;20016;-43
2023/08/22 09:12:38;;;;;;;2.22;1.17;;;23.90;99.90;;;;;;5073006;28;20570;-43
2023/08/22 09:15:11;;;;;;;1.50;1.17;;;23.90;99.90;;;;;;5081468;28;20021;-43
2023/08/22 09:17:38;;;;;;;2.50;1.42;;;23.90;99.90;;;;;;5078984;28;20048;-42
2023/08/22 09:20:10;;;;;;;3.80;1.45;;;23.90;99.90;;;;;;5082254;28;20034;-42
2023/08/22 09:22:35;;;;;;;;;;;23.90;99.90;;;;;;5074262;28;20032;-42
2023/08/22 09:25:04;;;;;;;2.65;1.60;;;23.90;99.90;;;;;;5085528;28;19957;-43
2023/08/22 09:27:29;;;;;;;2.42;1.80;;;23.90;99.90;;;;;;5074437;28;20047;-43
2023/08/22 09:30:04;;;;;;;3.10;1.70;;;23.90;99.90;;;;;;5086923;28;20383;-43
2023/08/22 09:32:30;;;;;;;3.08;1.30;;;23.90;99.90;;;;;;5074335;28;20398;-43
2023/08/22 09:34:58;;;;;;;3.95;2.13;;;24.00;99.90;;;;;;5087844;28;20024;-43
2023/08/22 09:37:37;;;;;;;3.47;2.10;;;24.00;99.90;;;;;;5074437;28;20085;-43
2023/08/22 09:40:08;;;;;;;2.83;1.63;;;24.10;99.90;;;;;;5085383;28;20020;-43
2023/08/22 09:42:43;;;;;;;4.20;2.45;;;24.20;99.90;;;;;;5071916;28;20861;-43
2023/08/22 09:45:09;;;;;;;2.22;1.45;;;24.20;99.90;;;;;;5086074;28;20039;-44
2023/08/22 09:47:42;;;;;;;3.33;1.80;;;24.20;99.90;;;;;;5073301;28;20046;-44
2023/08/22 09:50:08;;;;;;;3.65;1.80;;;24.20;99.90;;;;;;5066627;28;20029;-43
2023/08/22 09:52:36;;;;;;;2.35;1.48;;;24.30;99.90;;;;;;5076240;28;20131;-44
2023/08/22 09:55:07;;;;;;;2.60;1.63;;;24.30;99.90;;;;;;5066615;28;20195;-44
2023/08/22 09:57:33;;;;;;;1.88;1.48;;;24.40;99.90;;;;;;5074327;28;20119;-44
2023/08/22 10:00:04;;;;;;;2.35;1.65;;;24.40;99.90;;;;;;5068324;28;20034;-43
2023/08/22 10:02:32;;;;;;;3.65;1.58;;;24.50;99.90;;;;;;5072969;28;20353;-44
2023/08/22 10:05:00;;;;;;;2.15;1.25;;;24.40;99.90;;;;;;5070539;28;20017;-43
2023/08/22 10:07:26;;;;;;;3.45;1.38;;;24.40;99.90;;;;;;5070730;28;20028;-43
2023/08/22 10:09:52;;;;;;;2.60;1.23;;;24.40;99.90;;;;;;5073635;28;20633;-43
2023/08/22 10:12:20;;;;;;;3.08;1.17;;;24.40;99.90;;;;;;5068094;28;20052;-43
2023/08/22 10:14:56;;;;;;;3.42;1.20;;;24.40;99.90;;;;;;5073135;28;20456;-42
2023/08/22 10:17:25;;;;;;;3.17;0.90;;;24.40;99.90;;;;;;5074877;28;20103;-43
2023/08/22 10:19:51;;;;;;;3.53;1.85;;;24.50;99.90;;;;;;5074991;28;20062;-42
2023/08/22 10:22:17;;;;;;;3.60;1.40;;;24.60;99.90;;;;;;5081723;28;20426;-43
2023/08/22 10:24:50;;;;;;;3.55;1.27;;;24.60;99.90;;;;;;5074613;28;20383;-43
2023/08/22 10:27:27;;;;;;;2.55;1.20;;;24.70;99.90;;;;;;5084220;28;20040;-43
2023/08/22 10:30:14;;;;;;;3.55;1.30;;;24.80;99.90;;;;;;5074228;28;20104;-43
2023/08/22 10:33:05;;;;;;;2.30;1.48;;;24.90;99.90;;;;;;5084868;28;20120;-43
2023/08/22 10:35:31;;;;;;;3.25;1.23;;;25.00;99.90;;;;;;5076292;28;20032;-43
2023/08/22 10:37:57;;;;;;;2.80;1.42;;;25.10;99.90;;;;;;5084107;28;20097;-43
2023/08/22 10:40:33;;;;;;;2.17;1.00;;;25.20;99.90;;;;;;5073970;28;20042;-43
2023/08/22 10:43:16;;;;;;;2.55;1.42;;;25.30;99.90;;;;;;5083441;28;20059;-43
2023/08/22 10:45:48;;;;;;;2.75;1.00;;;25.40;99.90;;;;;;5075161;28;20108;-44
2023/08/22 10:48:16;;;;;;;2.15;1.20;;;25.40;99.90;;;;;;5083945;28;20533;-44
2023/08/22 10:50:44;;;;;;;3.33;1.00;;;25.50;99.70;;;;;;5073805;28;20020;-44
2023/08/22 10:53:24;;;;;;;1.20;0.90;;;25.50;99.60;;;;;;5083783;28;20024;-42
2023/08/22 10:55:50;;;;;;;1.63;0.90;;;25.50;99.40;;;;;;5074840;28;20235;-42
2023/08/22 10:58:34;;;;;;;1.23;0.80;;;25.60;99.30;;;;;;5083231;28;20055;-42
2023/08/22 11:01:01;;;;;;;1.90;0.82;;;25.70;99.00;;;;;;5073871;28;20082;-42
2023/08/22 11:03:26;;;;;;;0.82;0.70;;;25.80;98.90;;;;;;5082897;28;20028;-42
2023/08/22 11:05:52;;;;;;;1.13;0.63;;;25.80;98.80;;;;;;5075117;28;20027;-43
2023/08/22 11:08:18;;;;;;;1.20;0.70;;;25.80;98.60;;;;;;5063753;28;20076;-43
2023/08/22 11:10:45;;;;;;;1.05;0.50;;;25.80;98.30;;;;;;5076951;28;20094;-43
2023/08/22 11:13:10;;;;;;;1.65;0.52;;;25.80;97.90;;;;;;5064767;28;20493;-44
2023/08/22 11:15:36;;;;;;;1.08;0.63;;;25.80;97.60;;;;;;5066430;28;20472;-42
2023/08/22 11:18:04;;;;;;;1.65;0.70;;;25.80;97.50;;;;;;5088700;28;20758;-43
2023/08/22 11:20:33;;;;;;;0.98;0.50;;;25.80;97.20;;;;;;5086342;28;20028;-44
2023/08/22 11:23:00;;;;;;;0.65;0.40;;;25.80;97.10;;;;;;5066449;28;20032;-43
2023/08/22 11:25:26;;;;;;;0.82;0.60;;;25.80;97.00;;;;;;5073000;28;20123;-42
2023/08/22 11:27:52;;;;;;;2.72;0.50;;;25.80;96.60;;;;;;5068446;28;20035;-42
2023/08/22 11:30:19;;;;;;;1.08;0.50;;;25.80;96.40;;;;;;5072617;28;20020;-46
2023/08/22 11:32:45;;;;;;;2.65;0.60;;;25.90;96.40;;;;;;5070457;28;20028;-42
2023/08/22 11:35:11;;;;;;;0.98;0.55;;;25.90;96.00;;;;;;5070603;28;20031;-42
2023/08/22 11:37:40;;;;;;;1.33;0.70;;;25.90;96.20;;;;;;5076311;28;20494;-42
2023/08/22 11:40:16;;;;;;;0.68;0.60;;;25.90;95.80;;;;;;5082851;28;20070;-42
2023/08/22 11:42:42;;;;;;;0.85;0.60;;;25.90;95.80;;;;;;5075057;28;20031;-42
2023/08/22 11:45:10;;;;;;;1.40;0.52;;;26.00;95.90;;;;;;5083162;28;20052;-43
2023/08/22 11:47:43;;;;;;;0.85;0.40;;;26.00;95.80;;;;;;5072659;28;20085;-42
2023/08/22 11:50:15;;;;;;;2.67;0.70;;;26.00;95.60;;;;;;5082980;28;20045;-43
2023/08/22 11:52:45;;;;;;;0.90;0.50;;;26.00;95.60;;;;;;5073195;28;20024;-42
2023/08/22 11:55:14;;;;;;;0.50;0.35;;;26.00;95.70;;;;;;5083283;28;20525;-43
2023/08/22 11:57:47;;;;;;;1.38;0.60;;;26.00;95.60;;;;;;5073458;28;20034;-43
2023/08/22 12:00:14;;;;;;;1.20;0.70;;;26.10;95.40;;;;;;5083821;28;20110;-42
2023/08/22 12:02:59;;;;;;;1.50;1.02;;;26.20;95.30;;;;;;5072724;28;20030;-43
2023/08/22 12:05:34;;;;;;;0.98;0.70;;;26.20;95.20;;;;;;5084453;28;20031;-42
2023/08/22 12:08:06;;;;;;;0.90;0.63;;;26.20;95.20;;;;;;5074321;28;20051;-42
2023/08/22 12:10:52;;;;;;;1.20;0.65;;;26.30;95.20;;;;;;5064642;28;20028;-43
2023/08/22 12:13:23;;;;;;;1.88;0.93;;;26.40;95.30;;;;;;5068980;28;20493;-43
2023/08/22 12:15:50;;;;;;;0.65;0.60;;;26.50;95.20;;;;;;5082493;28;20086;-44
2023/08/22 12:18:16;;;;;;;1.70;0.90;;;26.50;94.90;;;;;;5071429;28;20028;-43
2023/08/22 12:20:43;;;;;;;2.70;1.30;;;26.60;95.00;;;;;;5083312;28;20043;-43
2023/08/22 12:23:10;;;;;;;1.80;1.00;;;26.60;95.00;;;;;;5070392;28;20036;-43
2023/08/22 12:25:38;;;;;;;2.63;1.20;;;26.60;95.00;;;;;;5084119;28;20020;-43
2023/08/22 12:28:04;;;;;;;2.85;1.50;;;26.60;94.90;;;;;;5070107;28;20033;-43
2023/08/22 12:30:37;;;;;;;1.77;1.10;;;26.60;94.80;;;;;;5084405;28;20054;-43
2023/08/22 12:33:04;;;;;;;2.75;1.30;;;26.60;94.90;;;;;;5071882;28;20052;-43
2023/08/22 12:35:41;;;;;;;3.42;1.20;;;26.50;94.90;;;;;;5082562;28;20016;-42
2023/08/22 12:38:07;;;;;;;2.05;1.30;;;26.50;95.00;;;;;;5071949;28;20033;-44
2023/08/22 12:40:33;;;;;;;1.42;1.10;;;26.40;95.00;;;;;;5081766;28;20016;-42
2023/08/22 12:42:59;;;;;;;0.90;0.90;;;26.40;95.00;;;;;;5074711;28;20106;-42
2023/08/22 12:45:25;;;;;;;2.08;0.60;;;26.30;95.00;;;;;;5079513;28;20047;-43
2023/08/22 12:47:51;;;;;;;1.65;0.60;;;26.20;95.00;;;;;;5078018;28;20127;-42
2023/08/22 12:50:17;;;;;;;1.55;0.65;;;26.10;95.00;;;;;;5075970;28;20016;-42